createdAt,value
2022-07-31T00:02:42.674Z,19.74
2022-07-31T00:05:28.270Z,19.84
2022-07-31T00:08:13.312Z,19.80
2022-07-31T00:10:58.901Z,19.76
2022-07-31T00:13:56.393Z,19.76
2022-07-31T00:16:43.249Z,19.73
2022-07-31T00:19:28.529Z,19.65
2022-07-31T00:22:13.984Z,19.57
2022-07-31T00:24:58.977Z,19.27
2022-07-31T00:27:44.829Z,19.35
2022-07-31T00:30:30.662Z,19.34
2022-07-31T00:33:15.472Z,19.29
2022-07-31T00:36:00.880Z,19.17
2022-07-31T00:38:46.300Z,19.15
2022-07-31T00:41:42.879Z,19.08
2022-07-31T00:44:28.336Z,18.89
2022-07-31T00:47:14.003Z,18.77
2022-07-31T00:50:00.407Z,18.70
2022-07-31T00:52:45.558Z,18.66
2022-07-31T00:55:31.096Z,18.66
2022-07-31T00:58:36.290Z,18.62
2022-07-31T01:01:22.034Z,18.53
2022-07-31T01:04:06.945Z,18.48
2022-07-31T01:07:01.122Z,18.42
2022-07-31T01:09:48.355Z,18.35
2022-07-31T01:12:44.911Z,18.28
2022-07-31T01:15:30.452Z,18.27
2022-07-31T01:18:17.243Z,18.23
2022-07-31T01:21:13.401Z,18.22
2022-07-31T01:24:14.781Z,18.18
2022-07-31T01:27:04.203Z,18.14
2022-07-31T01:29:54.171Z,18.07
2022-07-31T01:32:46.852Z,18.07
2022-07-31T01:35:42.031Z,18.01
2022-07-31T01:38:34.424Z,17.96
2022-07-31T01:41:26.701Z,17.89
2022-07-31T01:44:15.380Z,17.85
2022-07-31T01:47:01.548Z,17.81
2022-07-31T01:49:50.097Z,17.77
2022-07-31T01:52:36.531Z,17.76
2022-07-31T01:55:22.122Z,17.78
2022-07-31T01:58:10.055Z,17.75
2022-07-31T02:00:56.123Z,17.74
2022-07-31T02:03:45.410Z,17.64
2022-07-31T02:06:31.808Z,17.60
2022-07-31T02:09:19.862Z,17.58
2022-07-31T02:12:09.325Z,17.57
2022-07-31T02:14:56.287Z,17.58
2022-07-31T02:17:43.952Z,17.51
2022-07-31T02:20:30.054Z,17.42
2022-07-31T02:23:15.988Z,17.36
2022-07-31T02:26:03.041Z,17.29
2022-07-31T02:28:49.295Z,17.27
2022-07-31T02:31:36.284Z,17.23
2022-07-31T02:34:29.226Z,17.21
2022-07-31T02:37:15.955Z,17.16
2022-07-31T02:40:02.085Z,17.11
2022-07-31T02:42:48.490Z,17.08
2022-07-31T02:45:34.587Z,17.12
2022-07-31T02:48:20.326Z,17.16
2022-07-31T02:51:06.468Z,17.20
2022-07-31T02:53:51.752Z,17.25
2022-07-31T02:56:37.461Z,17.23
2022-07-31T02:59:22.896Z,17.10
2022-07-31T03:02:08.773Z,17.13
2022-07-31T03:04:53.753Z,17.13
2022-07-31T03:07:38.581Z,17.16
2022-07-31T03:10:23.928Z,17.12
2022-07-31T03:13:10.592Z,17.03
2022-07-31T03:15:56.917Z,17.02
2022-07-31T03:18:42.072Z,16.98
2022-07-31T03:21:28.156Z,16.94
2022-07-31T03:24:14.105Z,16.94
2022-07-31T03:26:59.028Z,16.96
2022-07-31T03:29:44.401Z,16.96
2022-07-31T03:32:29.789Z,16.96
2022-07-31T03:35:14.560Z,17.03
2022-07-31T03:37:59.852Z,17.02
2022-07-31T03:40:45.117Z,17.05
2022-07-31T03:43:46.858Z,17.08
2022-07-31T03:46:33.779Z,17.10
2022-07-31T03:49:19.410Z,17.12
2022-07-31T03:52:08.708Z,17.14
2022-07-31T03:54:57.265Z,17.15
2022-07-31T03:57:43.945Z,17.21
2022-07-31T04:00:31.360Z,17.19
2022-07-31T04:03:16.520Z,17.17
2022-07-31T04:06:01.428Z,17.13
2022-07-31T04:08:46.857Z,17.12
2022-07-31T04:11:32.379Z,17.08
2022-07-31T04:14:17.666Z,17.11
2022-07-31T04:17:03.224Z,17.11
2022-07-31T04:19:48.503Z,17.16
2022-07-31T04:22:34.448Z,17.25
2022-07-31T04:25:20.902Z,17.34
2022-07-31T04:28:05.731Z,17.50
2022-07-31T04:30:50.649Z,17.52
2022-07-31T04:33:35.967Z,17.61
2022-07-31T04:36:32.389Z,17.62
2022-07-31T04:39:17.321Z,17.69
2022-07-31T04:42:02.956Z,17.77
2022-07-31T04:44:48.096Z,17.81
2022-07-31T04:47:39.411Z,17.88
2022-07-31T04:50:24.480Z,17.98
2022-07-31T04:53:09.805Z,18.00
2022-07-31T04:55:55.130Z,18.00
2022-07-31T04:58:40.652Z,18.09
2022-07-31T05:02:22.391Z,18.17
2022-07-31T05:05:08.169Z,18.22
2022-07-31T05:07:53.602Z,18.29
2022-07-31T05:10:38.849Z,18.34
2022-07-31T05:13:23.618Z,18.35
2022-07-31T05:16:18.296Z,18.40
2022-07-31T05:19:05.139Z,18.48
2022-07-31T05:22:02.287Z,18.56
2022-07-31T05:24:47.932Z,18.64
2022-07-31T05:27:36.151Z,18.61
2022-07-31T05:30:30.601Z,18.68
2022-07-31T05:33:15.797Z,18.64
2022-07-31T05:36:11.300Z,18.73
2022-07-31T05:38:56.444Z,18.78
2022-07-31T05:41:41.867Z,18.91
2022-07-31T05:44:27.179Z,19.06
2022-07-31T05:47:12.044Z,19.16
2022-07-31T05:49:57.397Z,19.20
2022-07-31T05:52:42.712Z,19.31
2022-07-31T05:55:27.703Z,19.44
2022-07-31T05:58:16.882Z,19.45
2022-07-31T06:01:02.531Z,19.39
2022-07-31T06:03:51.946Z,19.48
2022-07-31T06:06:37.633Z,19.22
2022-07-31T06:09:22.949Z,19.09
2022-07-31T06:12:08.228Z,18.98
2022-07-31T06:14:53.213Z,19.18
2022-07-31T06:17:40.521Z,19.30
2022-07-31T06:20:29.920Z,19.45
2022-07-31T06:23:27.922Z,19.37
2022-07-31T06:26:17.194Z,19.43
2022-07-31T06:29:04.787Z,19.58
2022-07-31T06:31:50.335Z,19.60
2022-07-31T06:34:35.857Z,19.60
2022-07-31T06:37:21.268Z,19.67
2022-07-31T06:40:07.034Z,19.75
2022-07-31T06:42:54.980Z,19.89
2022-07-31T06:45:52.108Z,19.94
2022-07-31T06:48:37.801Z,20.05
2022-07-31T06:51:31.957Z,20.18
2022-07-31T06:54:17.967Z,20.32
2022-07-31T06:57:03.746Z,20.23
2022-07-31T06:59:48.925Z,20.15
2022-07-31T07:02:34.301Z,20.25
2022-07-31T07:05:19.289Z,20.10
2022-07-31T07:08:04.459Z,20.36
2022-07-31T07:10:49.449Z,20.51
2022-07-31T07:13:45.695Z,20.65
2022-07-31T07:16:32.020Z,20.81
2022-07-31T07:19:17.601Z,20.76
2022-07-31T07:22:02.618Z,21.01
2022-07-31T07:24:47.880Z,21.24
2022-07-31T07:27:32.701Z,21.46
2022-07-31T07:30:17.529Z,21.51
2022-07-31T07:33:03.286Z,21.67
2022-07-31T07:35:48.777Z,21.88
2022-07-31T07:38:33.694Z,22.28
2022-07-31T07:41:21.205Z,22.44
2022-07-31T07:44:06.623Z,22.22
2022-07-31T07:46:51.932Z,21.88
2022-07-31T07:49:37.394Z,21.69
2022-07-31T07:52:22.786Z,21.80
2022-07-31T07:55:08.387Z,21.80
2022-07-31T07:57:53.596Z,21.72
2022-07-31T08:00:39.759Z,21.67
2022-07-31T08:03:51.274Z,22.00
2022-07-31T08:06:30.061Z,21.61
2022-07-31T08:09:15.425Z,21.55
2022-07-31T08:12:01.647Z,21.65
2022-07-31T08:14:47.186Z,21.65
2022-07-31T08:17:31.985Z,21.90
2022-07-31T08:20:17.554Z,21.79
2022-07-31T08:23:03.009Z,21.56
2022-07-31T08:25:48.290Z,21.52
2022-07-31T08:28:37.083Z,21.43
2022-07-31T08:31:22.171Z,21.69
2022-07-31T08:34:08.784Z,21.83
2022-07-31T08:36:53.721Z,21.97
2022-07-31T08:39:39.899Z,22.13
2022-07-31T08:42:25.223Z,22.22
2022-07-31T08:45:10.605Z,22.09
2022-07-31T08:47:56.947Z,22.07
2022-07-31T08:50:45.415Z,22.09
2022-07-31T08:53:35.886Z,22.24
2022-07-31T08:56:21.665Z,22.31
2022-07-31T08:59:07.798Z,22.30
2022-07-31T09:01:53.065Z,22.40
2022-07-31T09:04:38.017Z,22.51
2022-07-31T09:07:23.581Z,22.68
2022-07-31T09:10:20.601Z,22.78
2022-07-31T09:13:17.112Z,22.75
2022-07-31T09:16:04.635Z,22.92
2022-07-31T09:19:01.695Z,23.15
2022-07-31T09:21:47.248Z,23.23
2022-07-31T09:24:36.853Z,23.19
2022-07-31T09:27:28.485Z,23.35
2022-07-31T09:30:14.660Z,23.24
2022-07-31T09:33:16.801Z,23.40
2022-07-31T09:36:02.465Z,23.70
2022-07-31T09:38:48.156Z,23.90
2022-07-31T09:41:59.903Z,23.74
2022-07-31T09:44:40.299Z,23.79
2022-07-31T09:47:31.088Z,23.93
2022-07-31T09:50:23.823Z,23.77
2022-07-31T09:53:08.984Z,23.73
2022-07-31T09:55:56.729Z,23.96
2022-07-31T09:58:42.964Z,24.32
2022-07-31T10:01:28.514Z,24.85
2022-07-31T10:04:16.379Z,25.31
2022-07-31T10:07:02.209Z,25.21
2022-07-31T10:09:47.641Z,25.37
2022-07-31T10:12:35.724Z,25.07
2022-07-31T10:15:22.869Z,24.73
2022-07-31T10:18:11.439Z,24.85
2022-07-31T10:20:57.222Z,25.13
2022-07-31T10:23:45.166Z,24.71
2022-07-31T10:26:57.756Z,24.57
2022-07-31T10:29:36.840Z,24.47
2022-07-31T10:32:22.022Z,24.43
2022-07-31T10:35:08.227Z,24.24
2022-07-31T10:38:03.071Z,24.22
2022-07-31T10:40:57.011Z,24.05
2022-07-31T10:43:53.124Z,24.09
2022-07-31T10:46:38.113Z,24.16
2022-07-31T10:49:46.343Z,24.08
2022-07-31T10:52:37.267Z,24.04
2022-07-31T10:55:24.151Z,24.13
2022-07-31T10:58:15.708Z,24.26
2022-07-31T11:01:05.678Z,24.15
2022-07-31T11:03:54.690Z,24.34
2022-07-31T11:06:42.028Z,24.63
2022-07-31T11:09:28.850Z,24.62
2022-07-31T11:12:20.596Z,24.43
2022-07-31T11:15:18.159Z,24.26
2022-07-31T11:18:26.456Z,24.18
2022-07-31T11:21:36.306Z,24.12
2022-07-31T11:24:22.883Z,24.13
2022-07-31T11:27:07.973Z,23.86
2022-07-31T11:29:59.452Z,23.96
2022-07-31T11:32:53.173Z,24.14
2022-07-31T11:35:38.430Z,23.95
2022-07-31T11:38:30.647Z,24.02
2022-07-31T11:41:17.951Z,23.99
2022-07-31T11:44:07.758Z,23.74
2022-07-31T11:46:54.473Z,23.90
2022-07-31T11:49:49.285Z,24.07
2022-07-31T11:52:37.337Z,24.15
2022-07-31T11:55:22.857Z,23.79
2022-07-31T11:58:10.085Z,23.85
2022-07-31T12:00:56.546Z,23.87
2022-07-31T12:03:42.431Z,24.00
2022-07-31T12:06:29.313Z,24.26
2022-07-31T12:10:02.247Z,24.32
2022-07-31T12:12:23.932Z,24.37
2022-07-31T12:15:14.208Z,24.06
2022-07-31T12:18:01.582Z,24.04
2022-07-31T12:20:55.000Z,24.17
2022-07-31T12:23:40.679Z,24.29
2022-07-31T12:26:31.534Z,25.27
2022-07-31T12:29:16.461Z,26.12
2022-07-31T12:32:02.886Z,26.41
2022-07-31T12:34:48.263Z,25.57
2022-07-31T12:37:47.408Z,24.61
2022-07-31T12:40:33.432Z,24.26
2022-07-31T12:43:23.794Z,24.73
2022-07-31T12:46:08.851Z,24.96
2022-07-31T12:48:54.230Z,24.74
2022-07-31T12:51:45.547Z,24.30
2022-07-31T12:54:35.477Z,24.39
2022-07-31T12:57:24.263Z,24.51
2022-07-31T13:00:10.246Z,24.31
2022-07-31T13:02:57.411Z,24.09
2022-07-31T13:05:42.881Z,24.20
2022-07-31T13:08:28.089Z,24.08
2022-07-31T13:11:12.813Z,24.00
2022-07-31T13:13:57.817Z,23.93
2022-07-31T13:16:43.645Z,23.68
2022-07-31T13:19:28.881Z,23.63
2022-07-31T13:22:14.134Z,23.81
2022-07-31T13:24:59.525Z,24.02
2022-07-31T13:27:45.113Z,24.22
2022-07-31T13:30:30.197Z,24.43
2022-07-31T13:33:15.702Z,24.71
2022-07-31T13:36:01.117Z,24.82
2022-07-31T13:38:46.370Z,24.36
2022-07-31T13:41:31.725Z,23.98
2022-07-31T13:44:17.151Z,24.18
2022-07-31T13:47:02.349Z,24.28
2022-07-31T13:49:47.379Z,24.20
2022-07-31T13:52:32.293Z,24.24
2022-07-31T13:55:17.534Z,24.35
2022-07-31T13:58:02.848Z,24.42
2022-07-31T14:00:47.827Z,24.27
2022-07-31T14:03:32.810Z,24.41
2022-07-31T14:06:20.590Z,24.36
2022-07-31T14:09:07.565Z,24.32
2022-07-31T14:11:52.847Z,24.00
2022-07-31T14:14:38.323Z,23.84
2022-07-31T14:17:23.811Z,23.75
2022-07-31T14:20:09.425Z,23.69
2022-07-31T14:22:54.722Z,23.68
2022-07-31T14:25:41.028Z,23.80
2022-07-31T14:28:26.333Z,23.75
2022-07-31T14:31:11.145Z,23.58
2022-07-31T14:33:56.144Z,23.46
2022-07-31T14:36:41.421Z,23.66
2022-07-31T14:39:26.862Z,23.69
2022-07-31T14:42:12.490Z,23.38
2022-07-31T14:44:57.471Z,22.79
2022-07-31T14:47:42.878Z,22.49
2022-07-31T14:50:28.195Z,22.52
2022-07-31T14:53:13.630Z,22.62
2022-07-31T14:56:03.566Z,22.78
2022-07-31T14:58:57.337Z,22.87
2022-07-31T15:01:43.789Z,23.04
2022-07-31T15:04:29.117Z,23.21
2022-07-31T15:07:34.205Z,23.39
2022-07-31T15:10:49.874Z,23.38
2022-07-31T15:13:38.840Z,23.60
2022-07-31T15:16:24.101Z,23.43
2022-07-31T15:19:09.594Z,23.62
2022-07-31T15:22:10.685Z,23.31
2022-07-31T15:25:00.255Z,23.31
2022-07-31T15:27:45.600Z,23.42
2022-07-31T15:30:31.031Z,23.52
2022-07-31T15:34:11.528Z,23.62
2022-07-31T15:36:57.612Z,23.67
2022-07-31T15:39:42.670Z,23.73
2022-07-31T15:42:48.205Z,23.79
2022-07-31T15:45:33.683Z,23.95
2022-07-31T15:48:22.070Z,23.98
2022-07-31T15:51:08.493Z,23.90
2022-07-31T15:53:53.885Z,23.63
2022-07-31T15:56:41.284Z,23.56
2022-07-31T15:59:26.191Z,23.55
2022-07-31T16:02:11.657Z,23.54
2022-07-31T16:05:10.980Z,23.59
2022-07-31T16:08:31.105Z,23.57
2022-07-31T16:11:01.914Z,23.50
2022-07-31T16:13:46.886Z,23.56
2022-07-31T16:16:31.865Z,23.53
2022-07-31T16:19:17.257Z,23.59
2022-07-31T16:22:07.451Z,23.58
2022-07-31T16:24:53.243Z,23.46
2022-07-31T16:27:39.726Z,23.43
2022-07-31T16:30:24.952Z,23.44
2022-07-31T16:33:10.103Z,23.64
2022-07-31T16:35:55.430Z,23.83
2022-07-31T16:39:18.404Z,23.94
2022-07-31T16:41:55.484Z,23.97
2022-07-31T16:44:40.846Z,23.93
2022-07-31T16:47:50.946Z,24.07
2022-07-31T16:50:32.211Z,24.20
2022-07-31T16:54:11.673Z,24.21
2022-07-31T16:56:30.272Z,24.17
2022-07-31T16:59:15.822Z,24.09
2022-07-31T17:02:01.475Z,24.04
2022-07-31T17:04:47.695Z,24.04
2022-07-31T17:07:42.699Z,23.99
2022-07-31T17:10:28.212Z,23.94
2022-07-31T17:13:14.605Z,23.89
2022-07-31T17:16:13.737Z,23.87
2022-07-31T17:18:59.289Z,23.88
2022-07-31T17:21:51.917Z,23.88
2022-07-31T17:24:37.265Z,23.84
2022-07-31T17:27:22.894Z,23.79
2022-07-31T17:30:16.990Z,23.81
2022-07-31T17:33:02.336Z,23.80
2022-07-31T17:36:07.937Z,23.67
2022-07-31T17:39:02.679Z,23.62
2022-07-31T17:41:47.704Z,23.44
2022-07-31T17:44:33.102Z,23.29
2022-07-31T17:47:23.638Z,23.33
2022-07-31T17:50:09.478Z,23.12
2022-07-31T17:52:54.912Z,22.70
2022-07-31T17:55:39.740Z,22.29
2022-07-31T17:58:28.211Z,21.99
2022-07-31T18:01:13.225Z,21.51
2022-07-31T18:04:02.769Z,21.12
2022-07-31T18:06:51.435Z,21.08
2022-07-31T18:09:39.672Z,21.01
2022-07-31T18:12:24.812Z,20.91
2022-07-31T18:15:10.675Z,20.93
2022-07-31T18:17:56.281Z,20.82
2022-07-31T18:20:41.801Z,20.63
2022-07-31T18:23:33.314Z,20.50
2022-07-31T18:26:18.436Z,20.55
2022-07-31T18:29:04.891Z,20.44
2022-07-31T18:31:53.129Z,20.44
2022-07-31T18:35:08.308Z,20.52
2022-07-31T18:37:53.496Z,20.36
2022-07-31T18:40:38.596Z,20.32
2022-07-31T18:43:23.944Z,20.40
2022-07-31T18:46:08.706Z,20.46
2022-07-31T18:49:03.516Z,20.41
2022-07-31T18:51:48.955Z,20.38
2022-07-31T18:54:34.149Z,20.50
2022-07-31T18:57:19.357Z,20.53
2022-07-31T19:00:06.379Z,20.53
2022-07-31T19:02:51.464Z,20.62
2022-07-31T19:05:36.834Z,20.63
2022-07-31T19:08:22.435Z,20.48
2022-07-31T19:11:08.496Z,20.35
2022-07-31T19:13:54.585Z,20.31
2022-07-31T19:16:39.922Z,20.29
2022-07-31T19:19:42.615Z,20.25
2022-07-31T19:22:40.571Z,20.11
2022-07-31T19:25:25.877Z,20.11
2022-07-31T19:28:11.514Z,20.03
2022-07-31T19:31:00.289Z,19.99
2022-07-31T19:33:45.313Z,20.01
2022-07-31T19:36:30.206Z,20.03
2022-07-31T19:39:15.464Z,20.07
2022-07-31T19:42:11.031Z,20.01
2022-07-31T19:44:57.232Z,20.03
2022-07-31T19:47:42.631Z,20.03
2022-07-31T19:50:28.137Z,20.00
2022-07-31T19:53:13.601Z,20.02
2022-07-31T19:55:58.859Z,20.06
2022-07-31T19:58:43.747Z,20.07
2022-07-31T20:01:29.209Z,20.02
2022-07-31T20:04:14.470Z,19.98
2022-07-31T20:06:59.336Z,19.95
2022-07-31T20:09:44.634Z,19.92
2022-07-31T20:12:30.058Z,19.86
2022-07-31T20:15:15.543Z,19.87
2022-07-31T20:18:00.922Z,19.85
2022-07-31T20:20:46.178Z,19.68
2022-07-31T20:23:31.589Z,19.62
2022-07-31T20:26:17.094Z,19.59
2022-07-31T20:29:04.202Z,19.56
2022-07-31T20:31:49.593Z,19.54
2022-07-31T20:34:35.147Z,19.51
2022-07-31T20:37:20.395Z,19.59
2022-07-31T20:40:07.105Z,19.60
2022-07-31T20:42:52.213Z,19.54
2022-07-31T20:45:41.516Z,19.59
2022-07-31T20:48:28.057Z,19.65
2022-07-31T20:51:13.156Z,19.62
2022-07-31T20:53:58.777Z,19.66
2022-07-31T20:56:43.818Z,19.63
2022-07-31T20:59:29.300Z,19.68
2022-07-31T21:02:14.416Z,19.60
2022-07-31T21:04:59.865Z,19.51
2022-07-31T21:07:45.159Z,19.38
2022-07-31T21:10:30.288Z,19.30
2022-07-31T21:13:15.853Z,19.25
2022-07-31T21:16:01.000Z,19.23
2022-07-31T21:18:46.240Z,19.21
2022-07-31T21:21:31.603Z,19.16
2022-07-31T21:24:17.339Z,19.22
2022-07-31T21:27:02.856Z,19.20
2022-07-31T21:29:48.559Z,19.26
2022-07-31T21:32:34.312Z,19.21
2022-07-31T21:35:36.896Z,19.16
2022-07-31T21:38:23.157Z,19.12
2022-07-31T21:41:08.532Z,19.01
2022-07-31T21:43:59.555Z,19.04
2022-07-31T21:46:48.190Z,18.99
2022-07-31T21:49:37.625Z,18.95
2022-07-31T21:52:22.899Z,18.97
2022-07-31T21:55:08.751Z,19.03
2022-07-31T21:57:59.574Z,18.97
2022-07-31T22:00:45.522Z,19.03
2022-07-31T22:03:31.350Z,19.01
2022-07-31T22:06:16.559Z,19.02
2022-07-31T22:09:01.857Z,18.94
2022-07-31T22:11:55.024Z,18.92
2022-07-31T22:14:46.935Z,18.93
2022-07-31T22:17:32.455Z,18.93
2022-07-31T22:20:18.064Z,19.07
2022-07-31T22:23:03.317Z,19.06
2022-07-31T22:25:48.681Z,18.99
2022-07-31T22:28:34.477Z,19.02
2022-07-31T22:31:19.733Z,18.95
2022-07-31T22:34:04.993Z,18.91
2022-07-31T22:36:50.337Z,18.90
2022-07-31T22:39:36.576Z,18.98
2022-07-31T22:42:21.873Z,18.89
2022-07-31T22:45:07.929Z,18.84
2022-07-31T22:47:54.787Z,18.84
2022-07-31T22:50:39.960Z,18.91
2022-07-31T22:53:25.509Z,18.87
2022-07-31T22:56:11.026Z,18.85
2022-07-31T22:58:55.812Z,18.94
2022-07-31T23:01:41.198Z,19.03
2022-07-31T23:04:26.948Z,19.02
2022-07-31T23:07:11.901Z,18.99
2022-07-31T23:09:57.248Z,19.01
2022-07-31T23:12:42.653Z,19.01
2022-07-31T23:15:27.896Z,19.03
2022-07-31T23:18:12.695Z,19.02
2022-07-31T23:20:57.571Z,19.07
2022-07-31T23:23:49.041Z,19.00
2022-07-31T23:26:34.796Z,19.06
2022-07-31T23:29:19.813Z,19.15
2022-07-31T23:32:05.828Z,19.11
2022-07-31T23:34:52.101Z,19.12
2022-07-31T23:37:37.877Z,19.09
2022-07-31T23:40:22.936Z,19.15
2022-07-31T23:43:08.459Z,19.13
2022-07-31T23:45:53.478Z,19.14
2022-07-31T23:48:39.393Z,19.07
2022-07-31T23:51:24.812Z,19.04
2022-07-31T23:54:10.173Z,19.08
2022-07-31T23:56:55.626Z,19.02
2022-07-31T23:59:40.342Z,19.02
